Stations météo

réclame
Mon MeteoGroup
Besancon, France (7288): Température de l'air & dewpoint: 18.01.2018 09:00:00 - 24.01.2018 09:00:00 (CET)Besancon, France (7288): Température de l'air 5cm: 18.01.2018 09:00:00 - 24.01.2018 09:00:00 (CET)Besancon, France (7288): Température de l'air -20cm & Température de l'air -100cm: 18.01.2018 09:00:00 - 24.01.2018 09:00:00 (CET)Besancon, France (7288): Vitesse du vent & gusts: 18.01.2018 09:00:00 - 24.01.2018 09:00:00 (CET)Besancon, France (7288): Direction du vent: 18.01.2018 09:00:00 - 24.01.2018 09:00:00 (CET)Besancon, France (7288): reduced air pressure: 18.01.2018 09:00:00 - 24.01.2018 09:00:00 (CET)Besancon, France (7288): Ensoleillement: 18.01.2018 09:00:00 - 24.01.2018 09:00:00 (CET)Besancon, France (7288): Quantités de précipitations: 18.01.2018 09:00:00 - 24.01.2018 09:00:00 (CET)
Date & Time tt [°C] td [°C] tt 5cm [°C] tt -20cm [°C] tt -100cm [°C] ff [km/h] ff [knt] fx [km/h] fx [knt] dd ppp [hPa] sd [min] rr [mm]
24.01.2018 09:00:00 - - - - - - - - - - - - -
24.01.2018 08:00:00 4,9 4,5 0,7 7,3 7,6 0 0 0 0 N 1027,5 0 0,0
24.01.2018 07:00:00 6,1 5,5 1,4 7,4 7,7 0 0 2 1 N 1027,6 0 0,0
24.01.2018 06:00:00 7,3 6,4 3,2 7,4 7,7 0 0 5 3 N 1027,5 0 0,0
24.01.2018 05:00:00 8,0 6,6 6,9 7,4 7,6 0 0 5 3 N 1027,9 0 0,0
24.01.2018 04:00:00 8,4 6,9 8,2 7,4 7,6 3 2 12 6 S 1028,0 0 0,0
24.01.2018 03:00:00 8,4 6,9 8,1 7,4 7,6 6 4 17 9 SSW 1028,4 0 0,0
24.01.2018 02:00:00 8,4 6,5 8,0 7,4 7,6 6 3 20 11 SSW 1028,7 0 0,0
24.01.2018 01:00:00 8,4 6,0 8,2 7,4 7,6 7 4 24 13 SSW 1029,2 0 0,0
24.01.2018 00:00:00 8,4 5,7 8,1 7,4 7,6 6 3 20 11 SSW 1029,4 0 0,0
23.01.2018 23:00:00 8,5 4,9 7,9 7,4 7,6 5 3 14 8 SSW 1029,1 0 0,0
23.01.2018 22:00:00 8,1 3,9 7,4 7,5 7,6 4 2 11 6 S 1028,8 0 0,0
23.01.2018 21:00:00 7,7 3,5 6,0 7,5 7,6 5 3 14 7 SSW 1028,8 0 0,0
23.01.2018 20:00:00 7,5 3,5 6,0 7,5 7,6 5 3 11 6 S 1028,6 0 0,0
23.01.2018 19:00:00 6,7 3,3 3,2 7,5 7,6 0 0 6 3 N 1028,7 0 0,0
23.01.2018 18:00:00 7,0 3,1 3,1 7,4 7,6 0 0 11 6 N 1028,5 0 0,0
23.01.2018 17:00:00 8,8 2,8 7,2 7,4 7,6 4 2 21 11 SSW 1028,1 38 0,0
23.01.2018 16:00:00 9,9 2,3 11,5 7,3 7,6 7 4 21 12 SSW 1028,0 55 0,0
23.01.2018 15:00:00 10,0 3,3 11,0 7,3 7,6 6 3 18 10 SSW 1027,9 15 0,0
23.01.2018 14:00:00 9,1 2,9 10,1 7,2 7,5 11 6 22 12 SSW 1028,1 0 0,0
23.01.2018 13:00:00 8,5 4,1 9,6 7,2 7,6 11 6 23 12 SW 1028,9 0 0,0
23.01.2018 12:00:00 8,1 4,7 8,9 7,2 7,6 10 5 21 11 SW 1029,1 0 0,0
23.01.2018 11:00:00 7,6 4,5 7,4 7,2 7,6 6 4 15 8 SSW 1029,1 0 0,0
23.01.2018 10:00:00 7,1 5,1 6,2 7,3 7,6 3 2 9 5 SSE 1028,8 0 0,0
23.01.2018 09:00:00 6,6 5,2 5,7 7,3 7,5 3 1 13 7 SSW 1028,6 0 0,0
23.01.2018 08:00:00 6,2 5,2 5,3 7,4 7,6 3 2 9 5 SSW 1027,9 0 0,0
23.01.2018 07:00:00 5,9 5,3 2,1 7,4 7,6 4 2 8 4 SSW 1027,4 0 0,0
23.01.2018 06:00:00 6,1 5,2 4,3 7,4 7,6 2 1 6 4 SW 1027,0 0 0,0
23.01.2018 05:00:00 6,7 6,0 6,0 7,4 7,5 2 1 9 5 SW 1026,9 0 0,0
23.01.2018 04:00:00 7,0 6,3 6,5 7,4 7,5 5 3 16 9 SW 1026,8 0 0,2
23.01.2018 03:00:00 7,4 6,0 6,6 7,4 7,6 4 2 10 5 SW 1026,0 0 0,0
23.01.2018 02:00:00 7,4 5,7 6,8 7,4 7,5 2 1 9 5 SW 1025,4 0 0,0
23.01.2018 01:00:00 7,8 6,1 7,0 7,4 7,5 0 0 9 5 N 1024,7 0 0,0
23.01.2018 00:00:00 8,1 6,6 7,3 7,4 7,6 8 4 25 13 NNW 1023,9 0 0,0
22.01.2018 23:00:00 8,9 7,0 7,9 7,4 7,6 6 4 24 13 NW 1022,7 0 0,0
22.01.2018 22:00:00 9,3 8,5 8,5 7,3 7,5 3 2 10 5 WSW 1021,4 0 0,0
22.01.2018 21:00:00 9,4 8,9 7,9 7,3 7,5 3 2 14 8 WSW 1019,8 0 0,0
22.01.2018 20:00:00 10,0 9,4 9,4 7,2 7,6 9 5 22 12 W 1018,7 0 0,6
22.01.2018 19:00:00 10,3 9,8 10,0 7,1 7,5 14 8 29 16 SW 1016,8 0 2,6
22.01.2018 18:00:00 10,5 9,9 10,1 7,1 7,6 13 7 26 14 SW 1015,6 0 0,4
22.01.2018 17:00:00 10,6 9,7 10,2 7,0 7,5 16 9 40 22 SW 1014,4 0 0,2
22.01.2018 16:00:00 10,4 9,8 10,1 6,9 7,6 12 7 39 21 WSW 1013,4 0 6,2
22.01.2018 15:00:00 10,4 9,6 10,0 6,8 7,6 21 11 56 31 SSW 1012,5 0 0,4
22.01.2018 14:00:00 10,3 9,5 10,0 6,8 7,6 23 12 44 24 SSW 1012,0 0 3,2
22.01.2018 13:00:00 10,4 9,5 10,0 6,7 7,6 18 10 67 36 SW 1012,6 0 1,9
22.01.2018 12:00:00 10,3 9,8 10,1 6,6 7,6 18 10 49 26 SW 1012,7 0 2,4
22.01.2018 11:00:00 10,0 9,5 9,7 6,6 7,6 14 8 31 17 SSW 1014,0 0 3,4
22.01.2018 10:00:00 9,8 9,5 9,4 6,5 7,6 14 8 34 18 SSW 1014,7 0 4,3
22.01.2018 09:00:00 9,7 9,1 9,1 6,4 7,6 18 10 33 18 SSW 1014,6 0 1,6
22.01.2018 08:00:00 9,4 8,8 8,9 6,4 7,6 17 9 35 19 SSW 1014,7 0 1,0
22.01.2018 07:00:00 9,1 8,8 8,8 6,3 7,6 14 7 30 16 SSW 1015,1 0 1,8
22.01.2018 06:00:00 9,0 8,7 8,8 6,3 7,6 15 8 33 18 SW 1015,1 0 1,0
22.01.2018 05:00:00 9,0 8,5 8,9 6,2 7,6 11 6 25 13 SW 1015,1 0 1,4
22.01.2018 04:00:00 9,2 8,6 8,9 6,2 7,6 17 9 45 24 SSW 1014,7 0 3,4
22.01.2018 03:00:00 9,2 8,4 8,7 6,2 7,6 24 13 52 28 SSW 1014,5 0 2,0
22.01.2018 02:00:00 9,1 8,3 8,6 6,1 7,6 23 12 43 23 SSW 1014,3 0 1,4
22.01.2018 01:00:00 8,8 8,2 8,0 6,2 7,6 22 12 45 24 SW 1014,9 0 2,2
22.01.2018 00:00:00 8,2 7,8 7,2 6,2 7,7 18 10 42 23 SSW 1015,5 0 1,0
21.01.2018 23:00:00 7,4 7,0 4,8 6,2 7,6 21 11 48 26 SSW 1015,9 0 0,0
21.01.2018 22:00:00 4,9 4,3 4,3 6,2 7,6 3 1 8 5 SSW 1017,1 0 0,6
21.01.2018 21:00:00 4,3 3,6 3,9 6,2 7,7 0 0 10 5 N 1017,5 0 0,8
21.01.2018 20:00:00 4,0 3,1 3,7 6,2 7,7 4 2 11 6 SE 1018,3 0 1,0
21.01.2018 19:00:00 4,0 3,4 3,8 6,2 7,7 0 0 6 4 N 1018,9 0 1,9
21.01.2018 18:00:00 4,2 3,3 3,9 6,2 7,7 0 0 14 7 N 1019,4 0 2,2
21.01.2018 17:00:00 4,5 3,6 4,3 6,1 7,6 0 0 5 3 N 1019,5 0 1,6
21.01.2018 16:00:00 4,6 3,3 4,3 6,1 7,7 0 0 4 2 N 1019,6 0 0,4
21.01.2018 15:00:00 4,8 1,8 4,6 6,1 7,7 3 1 6 4 SSW 1019,7 0 0,0
21.01.2018 14:00:00 4,8 1,1 5,9 6,1 7,7 0 0 4 2 N 1019,9 0 0,0
21.01.2018 13:00:00 4,6 1,4 5,3 6,1 7,7 4 2 8 4 NNW 1019,8 0 0,0
21.01.2018 12:00:00 4,6 1,8 4,6 6,1 7,6 3 2 10 6 W 1019,9 0 0,0
21.01.2018 11:00:00 4,6 2,1 4,3 6,1 7,7 6 3 14 7 NNW 1019,8 0 0,0
21.01.2018 10:00:00 4,7 2,6 4,2 6,1 7,7 6 3 14 8 W 1018,5 0 0,0
21.01.2018 09:00:00 5,1 2,8 4,3 6,1 7,7 6 4 21 11 W 1017,6 0 0,0
21.01.2018 08:00:00 5,5 3,8 4,8 6,0 7,7 9 5 28 15 NW 1015,9 0 0,0
21.01.2018 07:00:00 6,5 4,2 5,6 6,0 7,7 11 6 28 15 WNW 1014,6 0 0,2
21.01.2018 06:00:00 6,7 5,5 6,1 6,0 7,7 9 5 17 9 WSW 1013,2 0 0,0
21.01.2018 05:00:00 7,0 5,6 6,1 5,9 7,7 3 2 24 13 SW 1012,6 0 0,0
21.01.2018 04:00:00 7,4 6,0 6,7 5,9 7,7 12 7 31 17 W 1011,3 0 0,0
21.01.2018 03:00:00 7,7 6,3 6,9 5,9 7,7 8 4 18 10 WSW 1009,5 0 1,4
21.01.2018 02:00:00 7,9 6,5 7,2 5,8 7,7 5 3 27 15 SW 1008,3 0 1,0
21.01.2018 01:00:00 8,5 6,5 7,4 5,8 7,7 9 5 32 17 WSW 1006,8 0 0,0
21.01.2018 00:00:00 8,8 7,4 8,0 5,7 7,7 10 6 32 17 WSW 1005,3 0 2,0
20.01.2018 23:00:00 8,8 8,0 8,1 5,7 7,7 16 8 39 21 SW 1003,9 0 1,4
20.01.2018 22:00:00 8,5 7,7 7,5 5,7 7,7 16 9 39 21 SW 1003,2 0 0,2
20.01.2018 21:00:00 7,8 7,2 7,0 5,7 7,7 12 7 45 24 SW 1003,4 0 0,6
20.01.2018 20:00:00 7,3 6,6 6,3 5,7 7,7 19 11 45 24 SSW 1003,7 0 0,0
20.01.2018 19:00:00 6,7 5,6 5,6 5,6 7,7 23 13 54 29 SSW 1003,9 0 0,0
20.01.2018 18:00:00 5,8 5,1 5,1 5,6 7,7 23 12 55 30 SSW 1003,7 0 0,0
20.01.2018 17:00:00 5,5 4,5 4,5 5,6 7,7 25 14 53 29 SSW 1003,3 0 0,2
20.01.2018 16:00:00 5,0 3,3 4,0 5,6 7,7 23 12 57 31 SSW 1002,9 0 0,0
20.01.2018 15:00:00 4,3 2,6 3,9 5,6 7,7 16 8 45 24 SSW 1004,1 0 0,6
20.01.2018 14:00:00 4,5 2,5 3,9 5,6 7,7 18 10 45 24 SSW 1005,3 0 0,6
20.01.2018 13:00:00 4,9 2,1 4,3 5,6 7,7 16 8 45 24 SSW 1006,9 0 0,2
20.01.2018 12:00:00 4,1 2,4 3,7 5,6 7,7 10 5 42 23 S 1009,5 0 0,2
20.01.2018 11:00:00 3,7 2,2 3,1 5,6 7,7 10 5 41 22 S 1012,2 0 0,4
20.01.2018 10:00:00 3,5 2,0 2,9 5,6 7,7 15 8 40 22 SSW 1013,9 0 0,2
20.01.2018 09:00:00 3,4 1,9 2,9 5,6 7,7 15 8 42 23 SSW 1015,0 0 0,6
20.01.2018 08:00:00 3,7 2,1 3,1 5,7 7,7 16 9 39 21 SSW 1015,7 0 0,2
20.01.2018 07:00:00 3,7 1,7 3,5 5,7 7,7 14 8 34 18 SSW 1016,3 0 0,0
20.01.2018 06:00:00 3,7 1,7 3,1 5,7 7,7 14 8 29 15 SSW 1016,9 0 0,0
20.01.2018 05:00:00 3,7 1,7 3,4 5,8 7,7 14 8 32 18 SW 1017,4 0 0,0
20.01.2018 04:00:00 3,8 1,7 2,8 5,8 7,7 16 8 35 19 SSW 1017,8 0 0,0
20.01.2018 03:00:00 3,7 1,9 2,6 5,9 7,7 20 11 40 21 SSW 1018,2 0 0,0
20.01.2018 02:00:00 3,2 1,9 1,0 5,9 7,7 8 4 18 10 SSW 1018,7 0 0,0
20.01.2018 01:00:00 2,6 1,6 1,2 6,0 7,7 7 4 21 11 SSW 1019,2 0 0,0
20.01.2018 00:00:00 2,5 1,6 1,5 6,0 7,7 12 6 25 13 SSW 1019,3 0 0,0
19.01.2018 23:00:00 2,9 1,6 1,7 6,1 7,7 12 6 23 12 SSW 1019,1 0 0,0
19.01.2018 22:00:00 3,3 2,0 1,8 6,1 7,7 13 7 22 12 SSW 1018,7 0 0,0
19.01.2018 21:00:00 2,8 2,1 1,4 6,1 7,7 7 4 23 12 WSW 1018,1 0 1,2
19.01.2018 20:00:00 3,2 1,2 2,6 6,1 7,7 9 5 28 15 NW 1017,1 0 0,0
19.01.2018 19:00:00 3,9 2,4 3,0 6,1 7,7 10 5 21 11 SSW 1016,2 0 0,0
19.01.2018 18:00:00 4,1 2,3 3,0 6,1 7,7 11 6 22 12 SSW 1015,7 0 0,0
19.01.2018 17:00:00 4,3 2,5 3,4 6,0 7,7 14 7 41 22 SW 1015,4 0 0,8
19.01.2018 16:00:00 6,3 1,2 6,2 6,0 7,7 16 8 - - SW 1014,9 0 0,0
19.01.2018 15:00:00 6,6 1,9 7,0 6,0 7,7 - - - - - 1014,9 0 0,0
19.01.2018 14:00:00 6,6 2,1 7,0 6,0 7,7 13 7 30 16 SW 1015,2 0 0,0
19.01.2018 13:00:00 6,6 2,9 7,5 6,0 7,7 12 7 24 13 SW 1015,8 8 0,0
19.01.2018 12:00:00 6,4 3,0 7,1 6,0 7,7 14 8 29 16 SW 1016,4 1 0,0
19.01.2018 11:00:00 6,4 2,8 4,7 6,0 7,7 10 5 22 12 SSW 1016,8 20 0,0
19.01.2018 10:00:00 4,8 2,0 2,6 6,0 7,7 11 6 22 12 SSW 1016,8 11 0,0
19.01.2018 09:00:00 3,9 2,6 2,4 6,0 7,7 5 3 20 11 SSW 1016,5 1 0,0
19.01.2018 08:00:00 4,2 3,0 2,7 6,1 7,8 7 4 17 9 SW 1016,0 0 0,0
19.01.2018 07:00:00 5,0 3,7 4,2 6,0 7,7 6 3 16 9 SW 1015,3 0 0,0
19.01.2018 06:00:00 4,9 4,0 3,9 6,0 7,7 8 4 18 10 SSW 1014,5 0 0,0
19.01.2018 05:00:00 5,4 3,9 4,7 6,0 7,7 9 5 35 19 WSW 1013,8 0 0,2
19.01.2018 04:00:00 5,7 4,0 5,0 6,0 7,8 11 6 30 16 WSW 1013,1 0 0,4
19.01.2018 03:00:00 6,4 5,2 5,7 5,9 7,7 10 5 26 14 SW 1012,6 0 0,6
19.01.2018 02:00:00 6,8 5,3 6,1 5,9 7,8 10 6 26 14 WSW 1012,1 0 0,2
19.01.2018 01:00:00 7,2 5,7 6,4 5,9 7,8 9 5 31 17 SW 1012,1 0 0,2
19.01.2018 00:00:00 7,9 6,0 6,7 5,8 7,7 17 9 55 30 SW 1011,6 0 3,0
18.01.2018 23:00:00 8,5 7,3 7,9 5,7 7,8 25 13 70 38 SW 1010,3 0 0,4
18.01.2018 22:00:00 8,6 7,4 7,9 5,7 7,8 25 14 59 32 SW 1009,3 0 0,2
18.01.2018 21:00:00 8,4 7,3 7,4 5,7 7,8 28 15 56 30 SSW 1009,8 0 0,2
18.01.2018 20:00:00 8,0 6,8 7,3 5,6 7,8 24 13 59 32 SSW 1010,5 0 0,0
18.01.2018 19:00:00 8,0 6,5 7,2 5,6 7,8 27 15 61 33 SSW 1010,5 0 0,0
18.01.2018 18:00:00 7,8 6,3 7,3 5,5 7,8 23 12 - - SW 1011,0 0 0,0
18.01.2018 17:00:00 7,7 5,5 6,5 5,5 7,8 27 15 - - SSW 1011,1 0 0,0
18.01.2018 16:00:00 7,3 5,3 6,3 5,5 7,8 28 15 61 33 SSW 1011,1 0 0,0
18.01.2018 15:00:00 6,9 5,2 6,3 5,4 7,8 23 12 60 33 SSW 1011,8 0 0,0
18.01.2018 14:00:00 6,7 5,6 6,1 5,4 7,8 23 12 60 33 SW 1012,6 0 0,0
18.01.2018 13:00:00 6,9 4,7 5,7 5,4 7,8 27 15 53 29 SSW 1013,4 0 0,0
18.01.2018 12:00:00 6,3 4,5 5,2 5,4 7,8 26 14 62 34 SW 1014,0 0 0,6
18.01.2018 11:00:00 5,6 4,2 4,9 5,4 7,8 25 14 59 32 SSW 1014,4 0 1,4
18.01.2018 10:00:00 5,5 4,0 4,3 5,5 7,8 25 14 59 32 SSW 1014,1 0 0,8
18.01.2018 09:00:00 4,8 3,3 3,5 5,5 7,8 25 13 55 30 SSW 1014,1 0 0,3

tt = Température de l'air
td = dewpoint
tt 5cm = Température de l'air 5cm
tt -20cm = Température de l'air -20cm
tt -100cm = Température de l'air -100cm
ff = Vitesse du vent
fx = gusts
dd = Direction du vent
ppp = reduced air pressure
sd = Ensoleillement
rr = Quantités de précipitations

stations d'obs. à proximité